createdAt,value
2022-08-19T00:01:59.367Z,16.60
2022-08-19T00:07:01.655Z,19.83
2022-08-19T00:12:02.475Z,20.80
2022-08-19T00:17:05.032Z,17.02
2022-08-19T00:22:06.214Z,18.27
2022-08-19T00:27:26.126Z,18.55
2022-08-19T00:32:28.877Z,16.13
2022-08-19T00:37:31.237Z,19.85
2022-08-19T00:42:31.848Z,21.73
2022-08-19T00:47:33.798Z,18.38
2022-08-19T00:52:36.889Z,19.80
2022-08-19T00:57:41.872Z,22.67
2022-08-19T01:02:44.144Z,22.92
2022-08-19T01:07:46.222Z,20.38
2022-08-19T01:12:47.765Z,21.92
2022-08-19T01:17:50.481Z,22.10
2022-08-19T01:22:55.170Z,24.92
2022-08-19T01:27:56.553Z,18.98
2022-08-19T01:33:06.056Z,22.38
2022-08-19T01:38:12.438Z,19.98
2022-08-19T01:43:13.125Z,23.67
2022-08-19T01:48:14.328Z,19.25
2022-08-19T01:53:16.279Z,23.38
2022-08-19T01:58:21.489Z,22.67
2022-08-19T02:03:22.154Z,28.50
2022-08-19T02:08:24.225Z,22.00
2022-08-19T02:13:26.378Z,26.73
2022-08-19T02:18:28.241Z,24.08
2022-08-19T02:23:30.291Z,20.73
2022-08-19T02:28:30.873Z,26.83
2022-08-19T02:33:31.511Z,21.80
2022-08-19T02:38:33.670Z,21.08
2022-08-19T02:43:36.845Z,19.05
2022-08-19T02:48:37.726Z,20.45
2022-08-19T02:53:39.646Z,22.88
2022-08-19T02:58:40.361Z,21.73
2022-08-19T03:03:41.012Z,23.13
2022-08-19T03:08:45.537Z,20.33
2022-08-19T03:13:46.319Z,23.38
2022-08-19T03:18:47.086Z,20.10
2022-08-19T03:23:49.163Z,22.88
2022-08-19T03:28:58.326Z,24.85
2022-08-19T03:33:59.455Z,28.20
2022-08-19T03:39:03.388Z,25.15
2022-08-19T03:44:05.716Z,20.65
2022-08-19T03:49:14.372Z,24.05
2022-08-19T03:54:18.845Z,21.42
2022-08-19T03:59:22.111Z,20.40
2022-08-19T04:04:23.116Z,28.02
2022-08-19T04:09:25.550Z,24.60
2022-08-19T04:14:27.795Z,20.92
2022-08-19T04:19:30.943Z,24.10
2022-08-19T04:24:33.223Z,28.63
2022-08-19T04:29:34.697Z,24.70
2022-08-19T04:34:35.309Z,26.13
2022-08-19T04:39:58.740Z,22.67
2022-08-19T04:45:05.411Z,25.30
2022-08-19T04:50:12.800Z,24.33
2022-08-19T04:55:15.453Z,24.65
2022-08-19T05:00:16.386Z,25.48
2022-08-19T05:05:17.285Z,24.08
2022-08-19T05:10:19.806Z,23.30
2022-08-19T05:15:20.843Z,27.30
2022-08-19T05:20:38.906Z,21.10
2022-08-19T05:25:41.786Z,25.65
2022-08-19T05:30:47.416Z,23.10
2022-08-19T05:35:49.457Z,21.52
2022-08-19T05:40:51.763Z,20.63
2022-08-19T05:45:52.577Z,24.13
2022-08-19T05:50:53.181Z,24.95
2022-08-19T05:55:55.117Z,23.42
2022-08-19T06:00:57.229Z,22.52
2022-08-19T06:05:59.638Z,22.98
2022-08-19T06:11:14.046Z,22.58
2022-08-19T06:16:21.798Z,22.20
2022-08-19T06:21:23.397Z,18.42
2022-08-19T06:26:26.089Z,16.33
2022-08-19T06:31:29.872Z,15.65
2022-08-19T06:36:34.776Z,16.13
2022-08-19T06:41:43.601Z,18.75
2022-08-19T06:46:53.609Z,23.15
2022-08-19T06:51:57.730Z,17.75
2022-08-19T06:57:02.911Z,18.60
2022-08-19T07:02:07.433Z,17.75
2022-08-19T07:07:20.291Z,20.02
2022-08-19T07:12:23.355Z,18.10
2022-08-19T07:17:23.985Z,23.35
2022-08-19T07:22:24.691Z,20.63
2022-08-19T07:27:26.682Z,22.20
2022-08-19T07:32:28.024Z,25.20
2022-08-19T07:37:33.142Z,25.02
2022-08-19T07:42:35.553Z,22.13
2022-08-19T07:47:49.645Z,33.88
2022-08-19T07:52:52.775Z,28.42
2022-08-19T07:57:54.849Z,31.08
2022-08-19T08:02:56.166Z,30.60
2022-08-19T08:08:14.765Z,28.67
2022-08-19T08:13:17.432Z,28.70
2022-08-19T08:18:18.235Z,34.15
2022-08-19T08:23:26.746Z,28.13
2022-08-19T08:28:30.608Z,31.90
2022-08-19T08:33:33.701Z,23.73
2022-08-19T08:38:39.662Z,26.08
2022-08-19T08:43:44.508Z,22.30
2022-08-19T08:48:54.161Z,24.00
2022-08-19T08:53:55.897Z,20.92
2022-08-19T08:59:02.440Z,15.88
2022-08-19T09:04:05.977Z,17.30
2022-08-19T09:09:16.556Z,17.75
2022-08-19T09:14:50.150Z,18.98
2022-08-19T09:19:55.502Z,17.98
2022-08-19T09:24:56.699Z,18.25
2022-08-19T09:29:58.716Z,21.45
2022-08-19T09:35:01.287Z,18.20
2022-08-19T09:40:05.151Z,17.00
2022-08-19T09:45:10.367Z,19.38
2022-08-19T09:50:16.332Z,16.63
2022-08-19T09:55:18.541Z,17.85
2022-08-19T10:00:21.597Z,19.02
2022-08-19T10:05:42.317Z,18.20
2022-08-19T10:10:46.666Z,19.48
2022-08-19T10:15:51.573Z,17.27
2022-08-19T10:20:54.495Z,13.63
2022-08-19T10:25:55.175Z,13.75
2022-08-19T10:30:57.143Z,14.02
2022-08-19T10:36:01.632Z,10.43
2022-08-19T10:41:09.343Z,10.60
2022-08-19T10:46:14.115Z,10.52
2022-08-19T10:51:35.822Z,9.55
2022-08-19T10:56:56.444Z,9.27
2022-08-19T11:02:03.804Z,9.93
2022-08-19T11:07:05.634Z,7.97
2022-08-19T11:12:07.036Z,7.82
2022-08-19T11:17:09.184Z,9.43
2022-08-19T11:22:10.799Z,8.90
2022-08-19T11:27:16.728Z,9.18
2022-08-19T11:32:18.653Z,9.57
2022-08-19T11:37:19.327Z,11.65
2022-08-19T11:42:37.933Z,13.43
2022-08-19T11:47:40.079Z,11.45
2022-08-19T11:52:40.691Z,12.10
2022-08-19T11:57:44.469Z,13.35
2022-08-19T12:02:46.450Z,13.43
2022-08-19T12:07:47.229Z,14.93
2022-08-19T12:12:54.628Z,16.60
2022-08-19T12:18:01.734Z,21.25
2022-08-19T12:23:04.461Z,21.48
2022-08-19T12:28:05.558Z,22.90
2022-08-19T12:33:07.481Z,27.05
2022-08-19T12:38:08.109Z,25.80
2022-08-19T12:43:09.535Z,24.40
2022-08-19T12:48:33.936Z,27.75
2022-08-19T12:53:32.144Z,28.77
2022-08-19T12:58:35.999Z,25.73
2022-08-19T13:03:40.620Z,29.50
2022-08-19T13:08:41.827Z,23.52
2022-08-19T13:13:46.010Z,22.48
2022-08-19T13:18:48.957Z,25.83
2022-08-19T13:23:49.711Z,22.55
2022-08-19T13:29:08.367Z,21.38
2022-08-19T13:34:10.419Z,26.05
2022-08-19T13:39:11.931Z,29.80
2022-08-19T13:44:12.597Z,27.77
2022-08-19T13:49:16.127Z,23.80
2022-08-19T13:54:17.829Z,27.92
2022-08-19T13:59:18.638Z,25.27
2022-08-19T14:04:20.572Z,23.17
2022-08-19T14:09:21.191Z,28.35
2022-08-19T14:14:22.377Z,34.67
2022-08-19T14:19:24.273Z,29.48
2022-08-19T14:24:25.456Z,29.70
2022-08-19T14:29:26.511Z,34.13
2022-08-19T14:34:28.521Z,37.42
2022-08-19T14:39:29.188Z,40.67
2022-08-19T14:44:29.775Z,37.20
2022-08-19T14:49:34.891Z,36.63
2022-08-19T14:54:36.355Z,31.63
2022-08-19T14:59:37.073Z,42.53
2022-08-19T15:04:39.879Z,33.97
2022-08-19T15:09:40.637Z,38.55
2022-08-19T15:14:43.110Z,32.35
2022-08-19T15:19:45.414Z,40.47
2022-08-19T15:24:48.217Z,38.30
2022-08-19T15:29:48.969Z,39.65
2022-08-19T15:34:57.043Z,54.78
2022-08-19T15:39:57.814Z,44.35
2022-08-19T15:45:00.622Z,38.22
2022-08-19T15:50:06.799Z,38.40
2022-08-19T15:55:11.549Z,37.70
2022-08-19T16:00:36.027Z,34.58
2022-08-19T16:05:56.736Z,36.53
2022-08-19T16:10:57.472Z,37.45
2022-08-19T16:15:58.179Z,36.78
2022-08-19T16:21:00.131Z,34.88
2022-08-19T16:26:00.849Z,34.55
2022-08-19T16:31:01.496Z,29.05
2022-08-19T16:36:07.251Z,32.13
2022-08-19T16:41:09.369Z,32.13
2022-08-19T16:46:11.106Z,32.30
2022-08-19T16:51:15.504Z,34.95
2022-08-19T16:56:16.175Z,29.92
2022-08-19T17:01:17.542Z,31.10
2022-08-19T17:06:24.054Z,29.35
2022-08-19T17:11:26.420Z,31.58
2022-08-19T17:16:30.151Z,30.80
2022-08-19T17:21:34.115Z,39.90
2022-08-19T17:26:34.830Z,28.20
2022-08-19T17:31:35.706Z,32.63
2022-08-19T17:36:38.145Z,30.45
2022-08-19T17:41:38.803Z,24.48
2022-08-19T17:46:39.409Z,34.55
2022-08-19T17:51:45.046Z,21.27
2022-08-19T17:56:46.301Z,28.75
2022-08-19T18:01:53.084Z,26.85
2022-08-19T18:06:56.278Z,24.42
2022-08-19T18:11:58.681Z,25.02
2022-08-19T18:17:00.025Z,26.80
2022-08-19T18:22:01.997Z,28.05
2022-08-19T18:27:02.607Z,28.20
2022-08-19T18:32:03.272Z,32.50
2022-08-19T18:37:05.580Z,27.83
2022-08-19T18:42:24.115Z,31.67
2022-08-19T18:47:42.289Z,28.63
2022-08-19T18:52:44.301Z,32.42
2022-08-19T18:57:44.964Z,32.28
2022-08-19T19:02:46.470Z,32.45
2022-08-19T19:07:48.651Z,29.52
2022-08-19T19:12:50.262Z,30.17
2022-08-19T19:17:50.965Z,33.33
2022-08-19T19:22:55.950Z,30.23
2022-08-19T19:27:58.853Z,36.42
2022-08-19T19:33:01.545Z,36.25
2022-08-19T19:38:03.493Z,46.55
2022-08-19T19:43:04.799Z,41.30
2022-08-19T19:48:05.860Z,45.35
2022-08-19T19:53:07.861Z,44.38
2022-08-19T19:58:08.703Z,37.50
2022-08-19T20:03:09.415Z,34.67
2022-08-19T20:08:28.997Z,40.38
2022-08-19T20:13:30.149Z,35.33
2022-08-19T20:18:31.390Z,36.90
2022-08-19T20:23:33.786Z,37.08
2022-08-19T20:28:34.420Z,35.60
2022-08-19T20:33:35.788Z,34.40
2022-08-19T20:38:39.214Z,32.40
2022-08-19T20:43:40.878Z,33.15
2022-08-19T20:48:42.785Z,37.03
2022-08-19T20:53:44.998Z,37.67
2022-08-19T20:58:49.892Z,33.72
2022-08-19T21:03:55.128Z,41.92
2022-08-19T21:08:57.062Z,36.60
2022-08-19T21:13:57.804Z,34.47
2022-08-19T21:18:58.423Z,40.28
2022-08-19T21:24:01.211Z,33.33
2022-08-19T21:29:01.836Z,30.33
2022-08-19T21:34:02.442Z,33.30
2022-08-19T21:39:05.430Z,28.92
2022-08-19T21:44:06.055Z,28.20
2022-08-19T21:49:06.744Z,32.05
2022-08-19T21:54:08.662Z,26.65
2022-08-19T21:59:15.091Z,34.55
2022-08-19T22:04:15.757Z,35.55
2022-08-19T22:09:17.699Z,34.28
2022-08-19T22:14:18.300Z,29.45
2022-08-19T22:19:18.888Z,24.45
2022-08-19T22:24:20.806Z,30.75
2022-08-19T22:29:28.866Z,32.83
2022-08-19T22:34:34.970Z,33.15
2022-08-19T22:39:37.057Z,26.05
2022-08-19T22:44:37.698Z,35.08
2022-08-19T22:49:38.310Z,33.10
2022-08-19T22:54:40.307Z,35.50
2022-08-19T22:59:41.596Z,27.80
2022-08-19T23:04:42.207Z,30.77
2022-08-19T23:09:44.425Z,31.88
2022-08-19T23:14:46.289Z,33.30
2022-08-19T23:19:46.882Z,32.55
2022-08-19T23:24:48.797Z,30.70
2022-08-19T23:30:14.576Z,33.50
2022-08-19T23:35:15.316Z,31.38
2022-08-19T23:40:17.661Z,36.25
2022-08-19T23:45:23.692Z,29.30
2022-08-19T23:50:26.669Z,33.53
2022-08-19T23:55:31.453Z,32.28
